createdAt,value
2022-11-10T00:00:48.244Z,11.83
2022-11-10T00:03:35.561Z,11.76
2022-11-10T00:06:22.671Z,11.81
2022-11-10T00:09:12.927Z,11.80
2022-11-10T00:11:59.605Z,11.78
2022-11-10T00:15:04.093Z,11.71
2022-11-10T00:17:50.026Z,11.73
2022-11-10T00:20:36.381Z,11.73
2022-11-10T00:23:22.373Z,11.73
2022-11-10T00:26:13.840Z,11.71
2022-11-10T00:29:02.558Z,11.65
2022-11-10T00:31:48.642Z,11.73
2022-11-10T00:34:35.195Z,11.78
2022-11-10T00:37:20.766Z,11.77
2022-11-10T00:40:08.516Z,11.78
2022-11-10T00:42:54.050Z,11.77
2022-11-10T00:45:43.931Z,11.82
2022-11-10T00:48:30.096Z,11.82
2022-11-10T00:51:26.271Z,11.85
2022-11-10T00:54:12.143Z,11.87
2022-11-10T00:56:58.628Z,11.90
2022-11-10T00:59:44.342Z,11.86
2022-11-10T01:02:30.334Z,11.85
2022-11-10T01:05:16.360Z,11.87
2022-11-10T01:08:02.047Z,11.85
2022-11-10T01:10:48.029Z,11.85
2022-11-10T01:13:34.414Z,11.88
2022-11-10T01:16:26.257Z,11.90
2022-11-10T01:19:11.954Z,11.91
2022-11-10T01:21:58.168Z,11.91
2022-11-10T01:24:44.120Z,11.90
2022-11-10T01:27:30.418Z,11.88
2022-11-10T01:30:16.966Z,11.90
2022-11-10T01:33:03.043Z,11.98
2022-11-10T01:35:48.832Z,11.93
2022-11-10T01:38:37.622Z,12.04
2022-11-10T01:41:23.731Z,12.04
2022-11-10T01:44:40.762Z,12.07
2022-11-10T01:47:26.821Z,12.02
2022-11-10T01:50:12.916Z,11.99
2022-11-10T01:53:03.493Z,12.00
2022-11-10T01:55:50.658Z,11.97
2022-11-10T01:58:40.411Z,11.96
2022-11-10T02:01:26.861Z,11.97
2022-11-10T02:04:16.484Z,11.93
2022-11-10T02:07:02.942Z,11.95
2022-11-10T02:09:49.046Z,11.89
2022-11-10T02:12:37.525Z,11.91
2022-11-10T02:15:25.569Z,11.93
2022-11-10T02:18:11.873Z,11.99
2022-11-10T02:20:58.105Z,12.03
2022-11-10T02:23:46.995Z,12.00
2022-11-10T02:26:37.808Z,11.98
2022-11-10T02:29:25.763Z,11.99
2022-11-10T02:32:11.795Z,11.98
2022-11-10T02:34:57.445Z,11.98
2022-11-10T02:37:43.261Z,11.90
2022-11-10T02:40:28.853Z,11.86
2022-11-10T02:43:17.974Z,11.92
2022-11-10T02:46:04.049Z,11.92
2022-11-10T02:48:49.954Z,11.92
2022-11-10T02:51:35.702Z,11.92
2022-11-10T02:54:21.931Z,11.95
2022-11-10T02:57:08.598Z,11.96
2022-11-10T02:59:54.712Z,12.01
2022-11-10T03:02:42.737Z,12.01
2022-11-10T03:05:32.489Z,11.99
2022-11-10T03:08:18.294Z,12.03
2022-11-10T03:11:04.748Z,12.04
2022-11-10T03:14:01.423Z,12.01
2022-11-10T03:16:48.077Z,12.01
2022-11-10T03:19:34.012Z,12.01
2022-11-10T03:22:19.731Z,12.00
2022-11-10T03:25:05.980Z,11.99
2022-11-10T03:27:51.652Z,11.98
2022-11-10T03:30:40.336Z,11.98
2022-11-10T03:33:26.302Z,12.07
2022-11-10T03:36:12.140Z,12.02
2022-11-10T03:38:58.279Z,12.00
2022-11-10T03:41:43.994Z,12.01
2022-11-10T03:44:29.832Z,12.08
2022-11-10T03:47:15.872Z,12.08
2022-11-10T03:50:01.805Z,12.08
2022-11-10T03:52:47.790Z,12.06
2022-11-10T03:55:33.439Z,12.06
2022-11-10T03:58:19.287Z,12.06
2022-11-10T04:01:05.117Z,12.01
2022-11-10T04:03:54.117Z,11.99
2022-11-10T04:06:58.324Z,11.92
2022-11-10T04:09:44.463Z,11.86
2022-11-10T04:12:48.802Z,11.88
2022-11-10T04:15:44.275Z,11.87
2022-11-10T04:18:29.965Z,11.86
2022-11-10T04:21:15.972Z,11.88
2022-11-10T04:24:01.827Z,11.87
2022-11-10T04:26:49.828Z,11.89
2022-11-10T04:29:35.828Z,11.87
2022-11-10T04:32:21.703Z,11.87
2022-11-10T04:35:10.172Z,11.86
2022-11-10T04:37:56.215Z,11.84
2022-11-10T04:40:44.947Z,11.87
2022-11-10T04:43:31.548Z,11.90
2022-11-10T04:46:25.082Z,11.90
2022-11-10T04:49:11.213Z,11.89
2022-11-10T04:51:57.409Z,11.89
2022-11-10T04:54:43.411Z,11.89
2022-11-10T04:57:29.368Z,11.90
2022-11-10T05:00:15.721Z,11.89
2022-11-10T05:03:04.007Z,11.88
2022-11-10T05:05:49.945Z,11.84
2022-11-10T05:08:37.717Z,11.87
2022-11-10T05:11:26.029Z,11.87
2022-11-10T05:14:11.871Z,11.85
2022-11-10T05:16:57.925Z,11.88
2022-11-10T05:19:44.099Z,11.83
2022-11-10T05:22:30.032Z,11.82
2022-11-10T05:25:16.352Z,11.79
2022-11-10T05:28:04.023Z,11.79
2022-11-10T05:30:49.822Z,11.76
2022-11-10T05:33:37.758Z,11.83
2022-11-10T05:36:23.694Z,11.88
2022-11-10T05:39:09.238Z,11.85
2022-11-10T05:41:55.452Z,11.81
2022-11-10T05:44:41.163Z,11.79
2022-11-10T05:47:26.741Z,11.85
2022-11-10T05:50:12.730Z,11.85
2022-11-10T05:52:58.464Z,11.89
2022-11-10T05:55:44.464Z,11.93
2022-11-10T05:58:33.149Z,11.97
2022-11-10T06:01:19.003Z,11.98
2022-11-10T06:04:05.243Z,11.99
2022-11-10T06:06:51.460Z,11.99
2022-11-10T06:09:38.068Z,12.00
2022-11-10T06:12:30.353Z,12.02
2022-11-10T06:15:16.979Z,12.00
2022-11-10T06:18:03.600Z,12.04
2022-11-10T06:20:49.340Z,12.07
2022-11-10T06:23:35.145Z,12.09
2022-11-10T06:26:20.949Z,12.09
2022-11-10T06:29:06.884Z,12.08
2022-11-10T06:31:53.097Z,12.09
2022-11-10T06:34:38.797Z,12.13
2022-11-10T06:37:24.625Z,12.10
2022-11-10T06:40:12.858Z,12.12
2022-11-10T06:42:59.814Z,12.09
2022-11-10T06:45:45.783Z,12.11
2022-11-10T06:48:31.990Z,12.10
2022-11-10T06:51:20.531Z,12.09
2022-11-10T06:54:10.156Z,12.04
2022-11-10T06:56:56.043Z,12.10
2022-11-10T06:59:42.048Z,12.21
2022-11-10T07:02:27.690Z,12.17
2022-11-10T07:05:15.347Z,12.19
2022-11-10T07:08:06.962Z,12.16
2022-11-10T07:10:55.527Z,12.11
2022-11-10T07:13:41.458Z,12.13
2022-11-10T07:16:27.364Z,12.14
2022-11-10T07:19:13.298Z,12.14
2022-11-10T07:21:59.063Z,12.17
2022-11-10T07:24:45.895Z,12.17
2022-11-10T07:27:32.429Z,12.20
2022-11-10T07:30:18.502Z,12.30
2022-11-10T07:33:13.417Z,12.28
2022-11-10T07:36:01.466Z,12.27
2022-11-10T07:38:47.595Z,12.26
2022-11-10T07:41:33.585Z,12.28
2022-11-10T07:44:19.693Z,12.21
2022-11-10T07:47:05.514Z,12.19
2022-11-10T07:49:51.654Z,12.25
2022-11-10T07:52:37.947Z,12.32
2022-11-10T07:55:23.848Z,12.36
2022-11-10T07:58:14.287Z,12.46
2022-11-10T08:01:00.384Z,12.60
2022-11-10T08:03:46.690Z,12.63
2022-11-10T08:06:36.097Z,12.66
2022-11-10T08:09:22.471Z,12.69
2022-11-10T08:12:11.253Z,12.75
2022-11-10T08:14:56.944Z,12.76
2022-11-10T08:17:43.304Z,12.82
2022-11-10T08:20:29.708Z,12.93
2022-11-10T08:23:16.308Z,13.04
2022-11-10T08:26:02.219Z,13.17
2022-11-10T08:28:48.372Z,13.31
2022-11-10T08:31:34.347Z,13.38
2022-11-10T08:34:21.749Z,13.24
2022-11-10T08:37:07.884Z,13.17
2022-11-10T08:39:54.005Z,13.27
2022-11-10T08:42:40.037Z,13.26
2022-11-10T08:45:26.807Z,13.22
2022-11-10T08:48:15.669Z,13.29
2022-11-10T08:51:02.225Z,13.13
2022-11-10T08:53:48.505Z,13.15
2022-11-10T08:56:34.675Z,13.11
2022-11-10T08:59:21.949Z,13.09
2022-11-10T09:02:10.305Z,13.09
2022-11-10T09:04:56.437Z,13.15
2022-11-10T09:07:45.193Z,13.27
2022-11-10T09:10:35.733Z,13.19
2022-11-10T09:13:27.757Z,13.14
2022-11-10T09:16:15.322Z,13.17
2022-11-10T09:19:01.166Z,13.18
2022-11-10T09:21:49.452Z,13.19
2022-11-10T09:24:35.542Z,13.23
2022-11-10T09:27:21.801Z,13.33
2022-11-10T09:30:16.264Z,13.32
2022-11-10T09:33:03.805Z,13.39
2022-11-10T09:35:50.881Z,13.40
2022-11-10T09:38:39.383Z,13.50
2022-11-10T09:41:29.862Z,13.49
2022-11-10T09:44:39.162Z,13.53
2022-11-10T09:47:56.384Z,13.55
2022-11-10T09:50:51.610Z,13.56
2022-11-10T09:53:44.708Z,13.45
2022-11-10T09:56:37.588Z,13.48
2022-11-10T09:59:28.112Z,13.41
2022-11-10T10:02:30.844Z,13.46
2022-11-10T10:05:28.081Z,13.41
2022-11-10T10:08:39.469Z,13.42
2022-11-10T10:12:02.591Z,13.45
2022-11-10T10:15:14.533Z,13.64
2022-11-10T10:18:25.671Z,13.70
2022-11-10T10:21:34.868Z,13.80
2022-11-10T10:24:23.144Z,13.94
2022-11-10T10:27:20.057Z,14.07
2022-11-10T10:30:17.489Z,14.23
2022-11-10T10:33:14.563Z,14.41
2022-11-10T10:36:08.461Z,14.59
2022-11-10T10:39:01.756Z,14.89
2022-11-10T10:41:47.811Z,14.82
2022-11-10T10:44:33.681Z,14.89
2022-11-10T10:47:20.092Z,15.21
2022-11-10T10:50:22.780Z,14.92
2022-11-10T10:53:11.112Z,14.75
2022-11-10T10:56:01.125Z,14.80
2022-11-10T10:58:56.266Z,14.94
2022-11-10T11:01:43.931Z,14.97
2022-11-10T11:04:32.903Z,15.06
2022-11-10T11:07:25.345Z,15.43
2022-11-10T11:10:44.945Z,15.34
2022-11-10T11:13:34.093Z,15.38
2022-11-10T11:16:20.196Z,15.49
2022-11-10T11:19:08.889Z,15.63
2022-11-10T11:22:13.356Z,15.56
2022-11-10T11:25:21.872Z,15.37
2022-11-10T11:28:26.084Z,15.52
2022-11-10T11:31:41.736Z,15.52
2022-11-10T11:34:38.394Z,15.48
2022-11-10T11:37:59.417Z,15.32
2022-11-10T11:41:22.519Z,15.46
2022-11-10T11:44:34.867Z,15.59
2022-11-10T11:47:42.309Z,15.48
2022-11-10T11:50:41.685Z,15.40
2022-11-10T11:53:50.471Z,15.50
2022-11-10T11:56:46.149Z,15.66
2022-11-10T12:00:03.746Z,15.71
2022-11-10T12:03:14.372Z,15.58
2022-11-10T12:06:23.240Z,15.68
2022-11-10T12:09:19.263Z,15.54
2022-11-10T12:12:23.981Z,15.27
2022-11-10T12:15:31.873Z,15.34
2022-11-10T12:18:32.318Z,15.35
2022-11-10T12:21:43.404Z,15.20
2022-11-10T12:25:09.870Z,15.16
2022-11-10T12:28:23.973Z,15.22
2022-11-10T12:31:18.195Z,15.35
2022-11-10T12:34:22.816Z,15.31
2022-11-10T12:37:16.200Z,15.31
2022-11-10T12:40:10.289Z,15.38
2022-11-10T12:43:03.349Z,15.15
2022-11-10T12:45:58.253Z,15.15
2022-11-10T12:49:07.824Z,15.10
2022-11-10T12:52:05.336Z,15.11
2022-11-10T12:54:51.526Z,15.15
2022-11-10T12:57:41.457Z,15.15
2022-11-10T13:00:35.354Z,15.25
2022-11-10T13:03:26.919Z,15.40
2022-11-10T13:06:26.777Z,15.51
2022-11-10T13:09:29.013Z,15.62
2022-11-10T13:12:16.994Z,15.70
2022-11-10T13:15:41.636Z,15.76
2022-11-10T13:18:30.268Z,15.76
2022-11-10T13:21:16.459Z,15.69
2022-11-10T13:24:08.200Z,15.62
2022-11-10T13:26:55.385Z,15.55
2022-11-10T13:29:56.437Z,15.51
2022-11-10T13:32:43.148Z,15.41
2022-11-10T13:35:29.016Z,15.51
2022-11-10T13:38:35.617Z,15.42
2022-11-10T13:41:26.379Z,15.41
2022-11-10T13:44:30.726Z,15.50
2022-11-10T13:47:35.064Z,15.52
2022-11-10T13:50:40.337Z,15.21
2022-11-10T13:53:48.431Z,15.22
2022-11-10T13:57:04.686Z,15.16
2022-11-10T14:00:06.153Z,15.15
2022-11-10T14:02:57.255Z,15.20
2022-11-10T14:06:02.144Z,15.15
2022-11-10T14:08:59.356Z,15.14
2022-11-10T14:12:15.653Z,15.11
2022-11-10T14:15:15.027Z,15.10
2022-11-10T14:18:01.125Z,15.07
2022-11-10T14:20:54.117Z,14.95
2022-11-10T14:23:48.290Z,14.92
2022-11-10T14:26:44.696Z,14.88
2022-11-10T14:29:34.628Z,14.96
2022-11-10T14:32:24.745Z,14.99
2022-11-10T14:35:22.824Z,14.91
2022-11-10T14:38:37.327Z,14.88
2022-11-10T14:41:24.685Z,14.91
2022-11-10T14:44:19.845Z,14.93
2022-11-10T14:47:33.087Z,14.98
2022-11-10T14:50:21.867Z,14.89
2022-11-10T14:53:33.511Z,14.84
2022-11-10T14:56:23.380Z,14.75
2022-11-10T14:59:13.886Z,14.71
2022-11-10T15:02:02.073Z,14.66
2022-11-10T15:04:50.949Z,14.64
2022-11-10T15:07:38.105Z,14.61
2022-11-10T15:10:27.902Z,14.60
2022-11-10T15:13:18.303Z,14.64
2022-11-10T15:16:30.715Z,14.63
2022-11-10T15:19:28.536Z,14.65
2022-11-10T15:22:19.346Z,14.61
2022-11-10T15:25:16.613Z,14.53
2022-11-10T15:28:05.027Z,14.47
2022-11-10T15:30:54.078Z,14.39
2022-11-10T15:33:46.647Z,14.30
2022-11-10T15:36:34.997Z,14.28
2022-11-10T15:39:25.198Z,14.23
2022-11-10T15:42:23.396Z,14.18
2022-11-10T15:45:09.953Z,14.13
2022-11-10T15:47:58.587Z,14.02
2022-11-10T15:50:48.002Z,13.92
2022-11-10T15:53:38.554Z,13.86
2022-11-10T15:56:25.347Z,13.78
2022-11-10T15:59:11.545Z,13.70
2022-11-10T16:01:57.884Z,13.63
2022-11-10T16:04:44.059Z,13.59
2022-11-10T16:07:30.215Z,13.44
2022-11-10T16:10:16.496Z,13.38
2022-11-10T16:13:02.290Z,13.39
2022-11-10T16:15:51.728Z,13.47
2022-11-10T16:18:42.642Z,13.54
2022-11-10T16:21:29.836Z,13.65
2022-11-10T16:24:15.787Z,13.60
2022-11-10T16:27:01.721Z,13.67
2022-11-10T16:29:48.066Z,13.67
2022-11-10T16:32:33.931Z,13.63
2022-11-10T16:35:19.905Z,13.69
2022-11-10T16:38:17.773Z,13.67
2022-11-10T16:41:04.639Z,13.61
2022-11-10T16:43:52.259Z,13.57
2022-11-10T16:46:38.642Z,13.42
2022-11-10T16:49:33.007Z,13.32
2022-11-10T16:52:19.361Z,13.26
2022-11-10T16:55:05.586Z,13.31
2022-11-10T16:57:51.660Z,13.30
2022-11-10T17:00:38.738Z,13.31
2022-11-10T17:03:32.885Z,13.28
2022-11-10T17:06:21.568Z,13.18
2022-11-10T17:09:14.434Z,13.21
2022-11-10T17:12:00.319Z,13.15
2022-11-10T17:14:48.999Z,13.11
2022-11-10T17:17:36.440Z,13.19
2022-11-10T17:20:40.592Z,13.16
2022-11-10T17:23:27.077Z,13.10
2022-11-10T17:26:18.124Z,13.02
2022-11-10T17:29:04.263Z,13.02
2022-11-10T17:31:50.503Z,12.97
2022-11-10T17:34:37.156Z,12.96
2022-11-10T17:37:23.162Z,13.00
2022-11-10T17:40:21.879Z,12.98
2022-11-10T17:43:12.392Z,12.98
2022-11-10T17:45:58.196Z,12.98
2022-11-10T17:48:44.006Z,12.93
2022-11-10T17:51:33.230Z,12.93
2022-11-10T17:54:19.035Z,13.01
2022-11-10T17:57:11.783Z,13.13
2022-11-10T17:59:57.835Z,13.09
2022-11-10T18:02:45.643Z,13.06
2022-11-10T18:05:31.300Z,13.08
2022-11-10T18:08:18.036Z,13.11
2022-11-10T18:11:04.156Z,13.01
2022-11-10T18:13:50.215Z,12.82
2022-11-10T18:16:37.325Z,12.79
2022-11-10T18:19:27.085Z,12.77
2022-11-10T18:22:13.411Z,12.75
2022-11-10T18:24:59.492Z,12.64
2022-11-10T18:27:45.323Z,12.58
2022-11-10T18:30:35.185Z,12.49
2022-11-10T18:33:21.940Z,12.55
2022-11-10T18:36:09.285Z,12.60
2022-11-10T18:38:55.275Z,12.59
2022-11-10T18:41:52.750Z,12.60
2022-11-10T18:44:38.645Z,12.64
2022-11-10T18:47:24.730Z,12.64
2022-11-10T18:50:11.215Z,12.56
2022-11-10T18:52:57.010Z,12.59
2022-11-10T18:55:52.782Z,12.64
2022-11-10T18:58:38.819Z,12.63
2022-11-10T19:01:25.235Z,12.55
2022-11-10T19:04:13.512Z,12.62
2022-11-10T19:06:59.354Z,12.51
2022-11-10T19:09:45.683Z,12.51
2022-11-10T19:12:31.963Z,12.42
2022-11-10T19:15:17.654Z,12.37
2022-11-10T19:18:03.634Z,12.36
2022-11-10T19:20:49.762Z,12.43
2022-11-10T19:23:36.304Z,12.36
2022-11-10T19:26:23.553Z,12.38
2022-11-10T19:29:09.668Z,12.36
2022-11-10T19:31:55.663Z,12.28
2022-11-10T19:34:41.653Z,12.10
2022-11-10T19:37:32.026Z,12.07
2022-11-10T19:40:21.239Z,12.07
2022-11-10T19:43:10.351Z,12.04
2022-11-10T19:45:57.018Z,12.10
2022-11-10T19:48:44.070Z,12.19
2022-11-10T19:51:30.363Z,12.08
2022-11-10T19:54:17.314Z,12.02
2022-11-10T19:57:03.424Z,12.14
2022-11-10T19:59:49.496Z,12.11
2022-11-10T20:02:35.337Z,12.11
2022-11-10T20:05:24.304Z,12.12
2022-11-10T20:08:12.069Z,12.08
2022-11-10T20:11:06.428Z,11.98
2022-11-10T20:13:55.388Z,11.91
2022-11-10T20:16:41.181Z,11.88
2022-11-10T20:19:27.073Z,11.91
2022-11-10T20:22:12.982Z,11.86
2022-11-10T20:24:59.317Z,11.85
2022-11-10T20:27:45.489Z,11.84
2022-11-10T20:30:36.258Z,11.78
2022-11-10T20:33:22.313Z,11.71
2022-11-10T20:36:20.174Z,11.65
2022-11-10T20:39:07.010Z,11.61
2022-11-10T20:41:53.063Z,11.58
2022-11-10T20:44:39.285Z,11.55
2022-11-10T20:47:26.191Z,11.49
2022-11-10T20:50:16.359Z,11.46
2022-11-10T20:53:05.962Z,11.47
2022-11-10T20:56:00.936Z,11.48
2022-11-10T20:58:47.346Z,11.48
2022-11-10T21:01:33.674Z,11.46
2022-11-10T21:04:21.995Z,11.35
2022-11-10T21:07:08.362Z,11.31
2022-11-10T21:09:54.631Z,11.30
2022-11-10T21:12:49.597Z,11.27
2022-11-10T21:15:38.977Z,11.18
2022-11-10T21:18:34.820Z,11.10
2022-11-10T21:21:23.599Z,11.15
2022-11-10T21:24:10.664Z,11.18
2022-11-10T21:26:57.824Z,11.24
2022-11-10T21:29:44.262Z,11.14
2022-11-10T21:32:30.383Z,11.19
2022-11-10T21:35:16.761Z,11.18
2022-11-10T21:38:03.169Z,11.17
2022-11-10T21:40:49.160Z,11.15
2022-11-10T21:43:35.749Z,11.19
2022-11-10T21:46:21.594Z,11.23
2022-11-10T21:49:08.289Z,11.25
2022-11-10T21:51:54.809Z,11.22
2022-11-10T21:54:40.747Z,11.25
2022-11-10T21:57:26.798Z,11.27
2022-11-10T22:00:13.562Z,11.21
2022-11-10T22:03:04.970Z,11.09
2022-11-10T22:05:50.501Z,10.85
2022-11-10T22:08:38.918Z,10.87
2022-11-10T22:11:43.307Z,10.89
2022-11-10T22:14:48.062Z,10.92
2022-11-10T22:17:52.261Z,10.98
2022-11-10T22:20:38.287Z,11.02
2022-11-10T22:23:44.324Z,11.05
2022-11-10T22:26:30.533Z,11.02
2022-11-10T22:29:16.910Z,11.01
2022-11-10T22:32:05.390Z,11.01
2022-11-10T22:34:54.352Z,10.92
2022-11-10T22:37:40.115Z,10.87
2022-11-10T22:40:45.956Z,10.86
2022-11-10T22:43:50.313Z,10.89
2022-11-10T22:46:45.929Z,10.85
2022-11-10T22:49:31.987Z,10.70
2022-11-10T22:52:17.741Z,10.51
2022-11-10T22:55:06.644Z,10.33
2022-11-10T22:57:53.149Z,10.28
2022-11-10T23:00:40.914Z,10.22
2022-11-10T23:03:26.809Z,10.42
2022-11-10T23:06:12.874Z,10.53
2022-11-10T23:08:59.994Z,10.60
2022-11-10T23:11:45.838Z,10.56
2022-11-10T23:14:31.835Z,10.55
2022-11-10T23:17:17.706Z,10.61
2022-11-10T23:20:04.362Z,10.59
2022-11-10T23:22:50.255Z,10.65
2022-11-10T23:25:36.235Z,10.69
2022-11-10T23:28:22.313Z,10.70
2022-11-10T23:31:12.453Z,10.62
2022-11-10T23:33:58.980Z,10.50
2022-11-10T23:36:45.162Z,10.45
2022-11-10T23:39:31.079Z,10.41
2022-11-10T23:42:17.218Z,10.35
2022-11-10T23:45:03.445Z,10.39
2022-11-10T23:47:49.449Z,10.37
2022-11-10T23:50:35.532Z,10.35
2022-11-10T23:53:21.858Z,10.33
2022-11-10T23:56:11.961Z,10.40
2022-11-10T23:58:57.990Z,10.42
